sensor_id;sensor_type;location;lat;lon;timestamp;P1;durP1;ratioP1;P2;durP2;ratioP2
45388;SDS011;31127;52.078;4.370;2023-07-24T00:01:57;10.43;;;5.82;;
45388;SDS011;31127;52.078;4.370;2023-07-24T00:06:53;7.75;;;5.32;;
45388;SDS011;31127;52.078;4.370;2023-07-24T00:11:49;9.48;;;5.43;;
45388;SDS011;31127;52.078;4.370;2023-07-24T00:16:48;9.63;;;5.45;;
45388;SDS011;31127;52.078;4.370;2023-07-24T00:21:43;15.55;;;6.43;;
45388;SDS011;31127;52.078;4.370;2023-07-24T00:26:39;9.85;;;6.28;;
45388;SDS011;31127;52.078;4.370;2023-07-24T00:31:57;9.20;;;6.40;;
45388;SDS011;31127;52.078;4.370;2023-07-24T00:36:53;11.38;;;6.65;;
45388;SDS011;31127;52.078;4.370;2023-07-24T00:41:48;13.18;;;7.82;;
45388;SDS011;31127;52.078;4.370;2023-07-24T00:47:04;9.30;;;6.88;;
45388;SDS011;31127;52.078;4.370;2023-07-24T00:52:00;11.00;;;6.70;;
45388;SDS011;31127;52.078;4.370;2023-07-24T00:57:15;13.75;;;8.27;;
45388;SDS011;31127;52.078;4.370;2023-07-24T01:02:11;10.18;;;6.57;;
45388;SDS011;31127;52.078;4.370;2023-07-24T01:07:08;15.27;;;7.43;;
45388;SDS011;31127;52.078;4.370;2023-07-24T01:12:04;11.20;;;6.88;;
45388;SDS011;31127;52.078;4.370;2023-07-24T01:17:02;13.40;;;6.28;;
45388;SDS011;31127;52.078;4.370;2023-07-24T01:27:20;11.85;;;6.30;;
45388;SDS011;31127;52.078;4.370;2023-07-24T01:32:17;14.10;;;6.18;;
45388;SDS011;31127;52.078;4.370;2023-07-24T01:37:12;14.55;;;6.00;;
45388;SDS011;31127;52.078;4.370;2023-07-24T01:42:09;12.38;;;5.53;;
45388;SDS011;31127;52.078;4.370;2023-07-24T01:47:05;10.45;;;6.22;;
45388;SDS011;31127;52.078;4.370;2023-07-24T01:52:00;11.45;;;5.55;;
45388;SDS011;31127;52.078;4.370;2023-07-24T01:56:56;9.88;;;5.45;;
45388;SDS011;31127;52.078;4.370;2023-07-24T02:01:51;13.13;;;5.45;;
45388;SDS011;31127;52.078;4.370;2023-07-24T02:06:50;13.57;;;5.15;;
45388;SDS011;31127;52.078;4.370;2023-07-24T02:11:46;19.42;;;6.10;;
45388;SDS011;31127;52.078;4.370;2023-07-24T02:16:41;12.93;;;5.10;;
45388;SDS011;31127;52.078;4.370;2023-07-24T02:21:39;10.68;;;5.10;;
45388;SDS011;31127;52.078;4.370;2023-07-24T02:26:36;10.95;;;5.22;;
45388;SDS011;31127;52.078;4.370;2023-07-24T02:31:31;11.57;;;5.65;;
45388;SDS011;31127;52.078;4.370;2023-07-24T02:36:27;10.63;;;5.95;;
45388;SDS011;31127;52.078;4.370;2023-07-24T02:41:23;13.43;;;5.93;;
45388;SDS011;31127;52.078;4.370;2023-07-24T02:46:20;15.07;;;5.43;;
45388;SDS011;31127;52.078;4.370;2023-07-24T02:51:15;14.77;;;5.63;;
45388;SDS011;31127;52.078;4.370;2023-07-24T02:56:11;16.60;;;5.38;;
45388;SDS011;31127;52.078;4.370;2023-07-24T03:01:07;14.10;;;6.28;;
45388;SDS011;31127;52.078;4.370;2023-07-24T03:06:03;11.85;;;5.65;;
45388;SDS011;31127;52.078;4.370;2023-07-24T03:10:58;11.87;;;6.07;;
45388;SDS011;31127;52.078;4.370;2023-07-24T03:15:56;14.82;;;6.65;;
45388;SDS011;31127;52.078;4.370;2023-07-24T03:20:52;12.63;;;5.70;;
45388;SDS011;31127;52.078;4.370;2023-07-24T03:25:47;15.95;;;7.63;;
45388;SDS011;31127;52.078;4.370;2023-07-24T03:30:43;13.60;;;5.90;;
45388;SDS011;31127;52.078;4.370;2023-07-24T03:35:38;10.70;;;5.97;;
45388;SDS011;31127;52.078;4.370;2023-07-24T03:40:34;15.00;;;5.63;;
45388;SDS011;31127;52.078;4.370;2023-07-24T03:45:30;11.50;;;5.30;;
45388;SDS011;31127;52.078;4.370;2023-07-24T03:50:28;13.82;;;6.35;;
45388;SDS011;31127;52.078;4.370;2023-07-24T03:55:24;11.68;;;5.45;;
45388;SDS011;31127;52.078;4.370;2023-07-24T04:00:19;15.63;;;6.03;;
45388;SDS011;31127;52.078;4.370;2023-07-24T04:05:15;13.13;;;5.33;;
45388;SDS011;31127;52.078;4.370;2023-07-24T04:10:10;12.85;;;6.10;;
45388;SDS011;31127;52.078;4.370;2023-07-24T04:15:06;14.50;;;6.15;;
45388;SDS011;31127;52.078;4.370;2023-07-24T04:20:02;13.27;;;5.30;;
45388;SDS011;31127;52.078;4.370;2023-07-24T04:24:58;11.18;;;5.82;;
45388;SDS011;31127;52.078;4.370;2023-07-24T04:29:53;13.77;;;5.82;;
45388;SDS011;31127;52.078;4.370;2023-07-24T04:34:49;13.30;;;5.70;;
45388;SDS011;31127;52.078;4.370;2023-07-24T04:39:44;15.68;;;6.85;;
45388;SDS011;31127;52.078;4.370;2023-07-24T04:44:40;15.50;;;5.90;;
45388;SDS011;31127;52.078;4.370;2023-07-24T04:49:36;16.05;;;6.28;;
45388;SDS011;31127;52.078;4.370;2023-07-24T04:54:32;14.85;;;5.75;;
45388;SDS011;31127;52.078;4.370;2023-07-24T04:59:27;15.50;;;6.00;;
45388;SDS011;31127;52.078;4.370;2023-07-24T05:04:22;12.35;;;5.90;;
45388;SDS011;31127;52.078;4.370;2023-07-24T05:09:18;17.20;;;5.68;;
45388;SDS011;31127;52.078;4.370;2023-07-24T05:14:13;13.50;;;5.45;;
45388;SDS011;31127;52.078;4.370;2023-07-24T05:19:09;16.48;;;6.15;;
45388;SDS011;31127;52.078;4.370;2023-07-24T05:24:05;12.07;;;5.43;;
45388;SDS011;31127;52.078;4.370;2023-07-24T05:29:00;19.00;;;5.60;;
45388;SDS011;31127;52.078;4.370;2023-07-24T05:34:16;12.65;;;5.65;;
45388;SDS011;31127;52.078;4.370;2023-07-24T05:39:11;18.83;;;5.65;;
45388;SDS011;31127;52.078;4.370;2023-07-24T05:44:07;15.55;;;5.68;;
45388;SDS011;31127;52.078;4.370;2023-07-24T05:49:02;16.08;;;5.85;;
45388;SDS011;31127;52.078;4.370;2023-07-24T05:53:58;17.50;;;5.55;;
45388;SDS011;31127;52.078;4.370;2023-07-24T05:58:53;15.43;;;5.40;;
45388;SDS011;31127;52.078;4.370;2023-07-24T06:03:49;12.70;;;5.00;;
45388;SDS011;31127;52.078;4.370;2023-07-24T06:08:44;20.23;;;5.53;;
45388;SDS011;31127;52.078;4.370;2023-07-24T06:13:39;18.80;;;5.60;;
45388;SDS011;31127;52.078;4.370;2023-07-24T06:18:35;13.30;;;5.10;;
45388;SDS011;31127;52.078;4.370;2023-07-24T06:23:31;17.05;;;5.68;;
45388;SDS011;31127;52.078;4.370;2023-07-24T06:28:26;11.10;;;5.05;;
45388;SDS011;31127;52.078;4.370;2023-07-24T06:33:24;10.95;;;5.25;;
45388;SDS011;31127;52.078;4.370;2023-07-24T06:38:19;14.27;;;5.88;;
45388;SDS011;31127;52.078;4.370;2023-07-24T06:43:16;14.38;;;6.35;;
45388;SDS011;31127;52.078;4.370;2023-07-24T06:48:12;13.60;;;5.47;;
45388;SDS011;31127;52.078;4.370;2023-07-24T06:53:07;16.42;;;6.25;;
45388;SDS011;31127;52.078;4.370;2023-07-24T06:58:02;13.98;;;5.47;;
45388;SDS011;31127;52.078;4.370;2023-07-24T07:02:58;14.32;;;5.53;;
45388;SDS011;31127;52.078;4.370;2023-07-24T07:07:53;10.67;;;4.97;;
45388;SDS011;31127;52.078;4.370;2023-07-24T07:12:49;10.35;;;5.07;;
45388;SDS011;31127;52.078;4.370;2023-07-24T07:17:44;13.70;;;5.30;;
45388;SDS011;31127;52.078;4.370;2023-07-24T07:22:40;12.27;;;4.40;;
45388;SDS011;31127;52.078;4.370;2023-07-24T07:27:35;13.50;;;4.63;;
45388;SDS011;31127;52.078;4.370;2023-07-24T07:32:31;12.35;;;4.93;;
45388;SDS011;31127;52.078;4.370;2023-07-24T07:37:27;9.65;;;4.20;;
45388;SDS011;31127;52.078;4.370;2023-07-24T07:42:22;10.73;;;4.33;;
45388;SDS011;31127;52.078;4.370;2023-07-24T07:47:18;11.07;;;4.70;;
45388;SDS011;31127;52.078;4.370;2023-07-24T07:52:33;7.65;;;4.35;;
45388;SDS011;31127;52.078;4.370;2023-07-24T07:57:29;12.30;;;5.82;;
45388;SDS011;31127;52.078;4.370;2023-07-24T08:02:25;13.18;;;5.25;;
45388;SDS011;31127;52.078;4.370;2023-07-24T08:07:20;11.52;;;4.65;;
45388;SDS011;31127;52.078;4.370;2023-07-24T08:12:16;10.02;;;4.85;;
45388;SDS011;31127;52.078;4.370;2023-07-24T08:17:11;10.82;;;4.57;;
45388;SDS011;31127;52.078;4.370;2023-07-24T08:22:07;12.23;;;5.40;;
45388;SDS011;31127;52.078;4.370;2023-07-24T08:27:03;12.27;;;4.57;;
45388;SDS011;31127;52.078;4.370;2023-07-24T08:31:58;8.63;;;4.82;;
45388;SDS011;31127;52.078;4.370;2023-07-24T08:36:53;10.65;;;4.57;;
45388;SDS011;31127;52.078;4.370;2023-07-24T08:41:49;11.80;;;5.37;;
45388;SDS011;31127;52.078;4.370;2023-07-24T08:47:06;10.77;;;4.50;;
45388;SDS011;31127;52.078;4.370;2023-07-24T08:52:02;8.43;;;3.90;;
45388;SDS011;31127;52.078;4.370;2023-07-24T08:56:59;6.43;;;4.00;;
45388;SDS011;31127;52.078;4.370;2023-07-24T09:02:15;7.18;;;3.92;;
45388;SDS011;31127;52.078;4.370;2023-07-24T09:07:10;10.05;;;4.50;;
45388;SDS011;31127;52.078;4.370;2023-07-24T09:12:06;8.60;;;3.58;;
45388;SDS011;31127;52.078;4.370;2023-07-24T09:27:29;11.05;;;5.35;;
45388;SDS011;31127;52.078;4.370;2023-07-24T09:32:25;9.63;;;5.15;;
45388;SDS011;31127;52.078;4.370;2023-07-24T09:37:24;10.95;;;5.05;;
45388;SDS011;31127;52.078;4.370;2023-07-24T09:42:31;11.43;;;5.30;;
45388;SDS011;31127;52.078;4.370;2023-07-24T09:52:33;9.02;;;4.80;;
45388;SDS011;31127;52.078;4.370;2023-07-24T09:57:30;12.85;;;5.40;;
45388;SDS011;31127;52.078;4.370;2023-07-24T10:02:27;8.00;;;4.25;;
45388;SDS011;31127;52.078;4.370;2023-07-24T10:07:23;8.75;;;4.18;;
45388;SDS011;31127;52.078;4.370;2023-07-24T10:12:19;8.63;;;4.20;;
45388;SDS011;31127;52.078;4.370;2023-07-24T10:17:23;9.00;;;3.70;;
45388;SDS011;31127;52.078;4.370;2023-07-24T10:22:20;7.20;;;4.00;;
45388;SDS011;31127;52.078;4.370;2023-07-24T10:27:15;7.82;;;3.88;;
45388;SDS011;31127;52.078;4.370;2023-07-24T10:32:17;9.40;;;4.05;;
45388;SDS011;31127;52.078;4.370;2023-07-24T10:37:13;8.63;;;4.07;;
45388;SDS011;31127;52.078;4.370;2023-07-24T10:42:09;5.85;;;3.38;;
45388;SDS011;31127;52.078;4.370;2023-07-24T10:47:05;8.05;;;4.07;;
45388;SDS011;31127;52.078;4.370;2023-07-24T10:52:00;8.10;;;3.78;;
45388;SDS011;31127;52.078;4.370;2023-07-24T10:56:59;8.05;;;4.25;;
45388;SDS011;31127;52.078;4.370;2023-07-24T11:01:58;3.72;;;2.58;;
45388;SDS011;31127;52.078;4.370;2023-07-24T11:06:55;4.65;;;2.63;;
45388;SDS011;31127;52.078;4.370;2023-07-24T11:12:11;4.05;;;2.00;;
45388;SDS011;31127;52.078;4.370;2023-07-24T11:17:37;3.13;;;1.80;;
45388;SDS011;31127;52.078;4.370;2023-07-24T11:22:33;3.10;;;1.90;;
45388;SDS011;31127;52.078;4.370;2023-07-24T11:27:49;2.47;;;1.70;;
45388;SDS011;31127;52.078;4.370;2023-07-24T11:32:44;2.60;;;1.77;;
45388;SDS011;31127;52.078;4.370;2023-07-24T11:37:41;3.88;;;2.03;;
45388;SDS011;31127;52.078;4.370;2023-07-24T11:42:56;2.10;;;1.90;;
45388;SDS011;31127;52.078;4.370;2023-07-24T11:47:52;2.58;;;1.70;;
45388;SDS011;31127;52.078;4.370;2023-07-24T11:52:51;3.72;;;1.70;;
45388;SDS011;31127;52.078;4.370;2023-07-24T11:57:55;5.22;;;1.70;;
45388;SDS011;31127;52.078;4.370;2023-07-24T12:02:50;4.65;;;1.90;;
45388;SDS011;31127;52.078;4.370;2023-07-24T12:07:46;1.77;;;1.10;;
45388;SDS011;31127;52.078;4.370;2023-07-24T12:12:47;2.78;;;1.52;;
45388;SDS011;31127;52.078;4.370;2023-07-24T12:17:43;3.42;;;1.63;;
45388;SDS011;31127;52.078;4.370;2023-07-24T12:22:38;2.17;;;1.30;;
45388;SDS011;31127;52.078;4.370;2023-07-24T12:27:34;3.00;;;1.65;;
45388;SDS011;31127;52.078;4.370;2023-07-24T12:32:30;8.30;;;5.50;;
45388;SDS011;31127;52.078;4.370;2023-07-24T12:37:26;5.32;;;1.73;;
45388;SDS011;31127;52.078;4.370;2023-07-24T12:42:21;6.57;;;1.83;;
45388;SDS011;31127;52.078;4.370;2023-07-24T12:47:18;6.57;;;1.92;;
45388;SDS011;31127;52.078;4.370;2023-07-24T12:52:34;10.88;;;2.22;;
45388;SDS011;31127;52.078;4.370;2023-07-24T12:57:49;7.18;;;2.03;;
45388;SDS011;31127;52.078;4.370;2023-07-24T13:02:45;5.45;;;2.10;;
45388;SDS011;31127;52.078;4.370;2023-07-24T13:07:41;8.20;;;1.97;;
45388;SDS011;31127;52.078;4.370;2023-07-24T13:12:37;4.70;;;1.52;;
45388;SDS011;31127;52.078;4.370;2023-07-24T13:17:32;9.48;;;2.22;;
45388;SDS011;31127;52.078;4.370;2023-07-24T13:22:28;6.78;;;2.35;;
45388;SDS011;31127;52.078;4.370;2023-07-24T13:27:24;6.22;;;1.90;;
45388;SDS011;31127;52.078;4.370;2023-07-24T13:32:19;6.97;;;2.00;;
45388;SDS011;31127;52.078;4.370;2023-07-24T13:37:15;10.87;;;2.37;;
45388;SDS011;31127;52.078;4.370;2023-07-24T13:42:10;6.47;;;2.20;;
45388;SDS011;31127;52.078;4.370;2023-07-24T13:47:26;7.68;;;2.00;;
45388;SDS011;31127;52.078;4.370;2023-07-24T13:52:21;12.82;;;2.78;;
45388;SDS011;31127;52.078;4.370;2023-07-24T13:57:17;9.77;;;2.33;;
45388;SDS011;31127;52.078;4.370;2023-07-24T14:02:13;10.88;;;2.40;;
45388;SDS011;31127;52.078;4.370;2023-07-24T14:07:08;6.40;;;1.45;;
45388;SDS011;31127;52.078;4.370;2023-07-24T14:12:05;7.93;;;1.77;;
45388;SDS011;31127;52.078;4.370;2023-07-24T14:17:01;7.82;;;1.55;;
45388;SDS011;31127;52.078;4.370;2023-07-24T14:21:56;4.03;;;1.27;;
45388;SDS011;31127;52.078;4.370;2023-07-24T14:26:52;7.10;;;2.28;;
45388;SDS011;31127;52.078;4.370;2023-07-24T14:31:49;6.25;;;1.20;;
45388;SDS011;31127;52.078;4.370;2023-07-24T14:37:04;2.33;;;0.90;;
45388;SDS011;31127;52.078;4.370;2023-07-24T14:42:01;6.47;;;1.13;;
45388;SDS011;31127;52.078;4.370;2023-07-24T14:46:56;4.60;;;0.93;;
45388;SDS011;31127;52.078;4.370;2023-07-24T14:51:52;5.43;;;0.85;;
45388;SDS011;31127;52.078;4.370;2023-07-24T14:56:47;1.90;;;0.70;;
45388;SDS011;31127;52.078;4.370;2023-07-24T15:01:42;6.13;;;1.30;;
45388;SDS011;31127;52.078;4.370;2023-07-24T15:06:58;4.80;;;0.90;;
45388;SDS011;31127;52.078;4.370;2023-07-24T15:11:55;3.63;;;1.52;;
45388;SDS011;31127;52.078;4.370;2023-07-24T15:16:51;3.90;;;1.35;;
45388;SDS011;31127;52.078;4.370;2023-07-24T15:21:46;2.90;;;1.48;;
45388;SDS011;31127;52.078;4.370;2023-07-24T15:26:42;3.35;;;1.10;;
45388;SDS011;31127;52.078;4.370;2023-07-24T15:31:38;3.80;;;1.27;;
45388;SDS011;31127;52.078;4.370;2023-07-24T15:36:35;7.72;;;1.70;;
45388;SDS011;31127;52.078;4.370;2023-07-24T15:41:33;3.85;;;1.27;;
45388;SDS011;31127;52.078;4.370;2023-07-24T15:46:29;4.85;;;1.30;;
45388;SDS011;31127;52.078;4.370;2023-07-24T15:51:26;6.15;;;1.50;;
45388;SDS011;31127;52.078;4.370;2023-07-24T15:56:22;4.88;;;1.70;;
45388;SDS011;31127;52.078;4.370;2023-07-24T16:01:17;6.95;;;1.85;;
45388;SDS011;31127;52.078;4.370;2023-07-24T16:06:16;7.88;;;1.95;;
45388;SDS011;31127;52.078;4.370;2023-07-24T16:11:11;5.07;;;1.88;;
45388;SDS011;31127;52.078;4.370;2023-07-24T16:16:07;3.38;;;1.30;;
45388;SDS011;31127;52.078;4.370;2023-07-24T16:21:04;2.85;;;1.33;;
45388;SDS011;31127;52.078;4.370;2023-07-24T16:26:20;2.70;;;1.15;;
45388;SDS011;31127;52.078;4.370;2023-07-24T16:31:15;3.15;;;1.60;;
45388;SDS011;31127;52.078;4.370;2023-07-24T16:36:11;3.95;;;1.35;;
45388;SDS011;31127;52.078;4.370;2023-07-24T16:41:07;7.75;;;1.77;;
45388;SDS011;31127;52.078;4.370;2023-07-24T16:46:02;6.47;;;1.67;;
45388;SDS011;31127;52.078;4.370;2023-07-24T16:50:57;4.47;;;1.50;;
45388;SDS011;31127;52.078;4.370;2023-07-24T16:55:53;8.82;;;2.08;;
45388;SDS011;31127;52.078;4.370;2023-07-24T17:00:49;7.72;;;1.63;;
45388;SDS011;31127;52.078;4.370;2023-07-24T17:06:04;8.77;;;1.83;;
45388;SDS011;31127;52.078;4.370;2023-07-24T17:11:01;7.97;;;2.03;;
45388;SDS011;31127;52.078;4.370;2023-07-24T17:15:59;7.00;;;2.22;;
45388;SDS011;31127;52.078;4.370;2023-07-24T17:20:55;6.57;;;1.60;;
45388;SDS011;31127;52.078;4.370;2023-07-24T17:25:50;7.38;;;1.85;;
45388;SDS011;31127;52.078;4.370;2023-07-24T17:31:06;5.22;;;1.83;;
45388;SDS011;31127;52.078;4.370;2023-07-24T17:36:21;9.88;;;2.38;;
45388;SDS011;31127;52.078;4.370;2023-07-24T17:41:17;7.25;;;1.58;;
45388;SDS011;31127;52.078;4.370;2023-07-24T17:46:13;7.15;;;1.90;;
45388;SDS011;31127;52.078;4.370;2023-07-24T17:51:09;4.55;;;1.02;;
45388;SDS011;31127;52.078;4.370;2023-07-24T17:56:04;5.43;;;1.15;;
45388;SDS011;31127;52.078;4.370;2023-07-24T18:01:00;12.68;;;8.07;;
45388;SDS011;31127;52.078;4.370;2023-07-24T18:05:55;4.43;;;1.23;;
45388;SDS011;31127;52.078;4.370;2023-07-24T18:10:53;13.05;;;3.08;;
45388;SDS011;31127;52.078;4.370;2023-07-24T18:15:48;7.27;;;1.50;;
45388;SDS011;31127;52.078;4.370;2023-07-24T18:20:44;7.35;;;1.85;;
45388;SDS011;31127;52.078;4.370;2023-07-24T18:25:40;10.95;;;1.98;;
45388;SDS011;31127;52.078;4.370;2023-07-24T18:30:36;7.82;;;2.08;;
45388;SDS011;31127;52.078;4.370;2023-07-24T18:35:31;8.40;;;2.13;;
45388;SDS011;31127;52.078;4.370;2023-07-24T18:40:26;9.50;;;2.40;;
45388;SDS011;31127;52.078;4.370;2023-07-24T18:45:23;7.43;;;2.00;;
45388;SDS011;31127;52.078;4.370;2023-07-24T18:50:19;11.43;;;2.28;;
45388;SDS011;31127;52.078;4.370;2023-07-24T18:55:14;8.00;;;2.13;;
45388;SDS011;31127;52.078;4.370;2023-07-24T19:00:30;8.07;;;2.35;;
45388;SDS011;31127;52.078;4.370;2023-07-24T19:05:25;10.80;;;2.15;;
45388;SDS011;31127;52.078;4.370;2023-07-24T19:10:21;6.18;;;2.45;;
45388;SDS011;31127;52.078;4.370;2023-07-24T19:15:17;5.70;;;2.03;;
45388;SDS011;31127;52.078;4.370;2023-07-24T19:20:12;10.95;;;2.10;;
45388;SDS011;31127;52.078;4.370;2023-07-24T19:25:08;12.57;;;2.10;;
45388;SDS011;31127;52.078;4.370;2023-07-24T19:30:23;5.30;;;1.88;;
45388;SDS011;31127;52.078;4.370;2023-07-24T19:35:19;10.10;;;2.60;;
45388;SDS011;31127;52.078;4.370;2023-07-24T19:40:15;13.05;;;2.40;;
45388;SDS011;31127;52.078;4.370;2023-07-24T19:45:11;8.73;;;2.58;;
45388;SDS011;31127;52.078;4.370;2023-07-24T19:50:06;22.80;;;11.50;;
45388;SDS011;31127;52.078;4.370;2023-07-24T19:55:02;9.25;;;2.30;;
45388;SDS011;31127;52.078;4.370;2023-07-24T19:59:58;12.88;;;2.80;;
45388;SDS011;31127;52.078;4.370;2023-07-24T20:04:53;6.47;;;1.80;;
45388;SDS011;31127;52.078;4.370;2023-07-24T20:10:09;11.77;;;2.10;;
45388;SDS011;31127;52.078;4.370;2023-07-24T20:15:05;5.45;;;2.10;;
45388;SDS011;31127;52.078;4.370;2023-07-24T20:20:20;6.57;;;2.55;;
45388;SDS011;31127;52.078;4.370;2023-07-24T20:25:38;8.98;;;1.98;;
45388;SDS011;31127;52.078;4.370;2023-07-24T20:30:34;6.32;;;2.00;;
45388;SDS011;31127;52.078;4.370;2023-07-24T20:35:29;12.05;;;2.75;;
45388;SDS011;31127;52.078;4.370;2023-07-24T20:40:25;7.47;;;2.03;;
45388;SDS011;31127;52.078;4.370;2023-07-24T20:45:21;8.07;;;2.17;;
45388;SDS011;31127;52.078;4.370;2023-07-24T20:50:16;9.87;;;2.03;;
45388;SDS011;31127;52.078;4.370;2023-07-24T20:55:12;7.88;;;2.20;;
45388;SDS011;31127;52.078;4.370;2023-07-24T21:00:08;6.80;;;2.10;;
45388;SDS011;31127;52.078;4.370;2023-07-24T21:05:03;5.82;;;2.17;;
45388;SDS011;31127;52.078;4.370;2023-07-24T21:09:59;16.00;;;2.95;;
45388;SDS011;31127;52.078;4.370;2023-07-24T21:15:00;8.40;;;2.33;;
45388;SDS011;31127;52.078;4.370;2023-07-24T21:20:16;12.75;;;2.30;;
45388;SDS011;31127;52.078;4.370;2023-07-24T21:25:11;5.88;;;2.00;;
45388;SDS011;31127;52.078;4.370;2023-07-24T21:30:07;6.15;;;2.50;;
45388;SDS011;31127;52.078;4.370;2023-07-24T21:35:03;6.45;;;1.80;;
45388;SDS011;31127;52.078;4.370;2023-07-24T21:39:59;8.73;;;2.30;;
45388;SDS011;31127;52.078;4.370;2023-07-24T21:44:54;3.90;;;1.73;;
45388;SDS011;31127;52.078;4.370;2023-07-24T21:49:50;14.18;;;2.28;;
45388;SDS011;31127;52.078;4.370;2023-07-24T21:54:45;13.13;;;2.40;;
45388;SDS011;31127;52.078;4.370;2023-07-24T21:59:41;8.97;;;2.20;;
45388;SDS011;31127;52.078;4.370;2023-07-24T22:04:37;8.88;;;2.45;;
45388;SDS011;31127;52.078;4.370;2023-07-24T22:09:32;11.57;;;2.78;;
45388;SDS011;31127;52.078;4.370;2023-07-24T22:14:28;8.00;;;2.33;;
45388;SDS011;31127;52.078;4.370;2023-07-24T22:19:25;14.68;;;2.80;;
45388;SDS011;31127;52.078;4.370;2023-07-24T22:24:20;8.00;;;2.60;;
45388;SDS011;31127;52.078;4.370;2023-07-24T22:29:16;9.80;;;2.20;;
45388;SDS011;31127;52.078;4.370;2023-07-24T22:34:12;12.00;;;2.88;;
45388;SDS011;31127;52.078;4.370;2023-07-24T22:39:27;10.02;;;2.47;;
45388;SDS011;31127;52.078;4.370;2023-07-24T22:44:43;16.35;;;9.38;;
45388;SDS011;31127;52.078;4.370;2023-07-24T22:49:38;10.35;;;2.53;;
45388;SDS011;31127;52.078;4.370;2023-07-24T22:54:34;11.45;;;2.05;;
45388;SDS011;31127;52.078;4.370;2023-07-24T22:59:31;9.60;;;2.17;;
45388;SDS011;31127;52.078;4.370;2023-07-24T23:04:47;7.38;;;2.17;;
45388;SDS011;31127;52.078;4.370;2023-07-24T23:09:43;11.10;;;2.20;;
45388;SDS011;31127;52.078;4.370;2023-07-24T23:14:39;13.40;;;2.28;;
45388;SDS011;31127;52.078;4.370;2023-07-24T23:19:34;8.50;;;2.03;;
45388;SDS011;31127;52.078;4.370;2023-07-24T23:24:30;10.77;;;2.50;;
45388;SDS011;31127;52.078;4.370;2023-07-24T23:29:25;9.82;;;2.83;;
45388;SDS011;31127;52.078;4.370;2023-07-24T23:34:21;8.63;;;2.35;;
45388;SDS011;31127;52.078;4.370;2023-07-24T23:39:16;6.95;;;2.13;;
45388;SDS011;31127;52.078;4.370;2023-07-24T23:44:12;6.22;;;1.77;;
45388;SDS011;31127;52.078;4.370;2023-07-24T23:49:07;8.95;;;2.50;;
45388;SDS011;31127;52.078;4.370;2023-07-24T23:54:03;10.05;;;2.63;;
45388;SDS011;31127;52.078;4.370;2023-07-24T23:58:58;8.75;;;3.00;;
